createdAt,value
2022-09-18T00:01:28.262Z,9.20
2022-09-18T00:03:57.465Z,9.20
2022-09-18T00:06:28.371Z,9.30
2022-09-18T00:08:58.099Z,9.30
2022-09-18T00:11:28.381Z,9.30
2022-09-18T00:13:55.825Z,9.30
2022-09-18T00:16:24.337Z,9.40
2022-09-18T00:18:51.500Z,9.40
2022-09-18T00:21:24.595Z,9.40
2022-09-18T00:23:57.852Z,9.40
2022-09-18T00:26:25.900Z,9.40
2022-09-18T00:28:53.767Z,9.40
2022-09-18T00:31:25.717Z,9.40
2022-09-18T00:33:53.081Z,9.40
2022-09-18T00:36:20.642Z,9.30
2022-09-18T00:38:47.851Z,9.30
2022-09-18T00:41:19.000Z,9.20
2022-09-18T00:43:45.991Z,9.20
2022-09-18T00:46:35.009Z,9.20
2022-09-18T00:49:21.846Z,9.20
2022-09-18T00:51:51.781Z,9.10
2022-09-18T00:54:41.034Z,9.10
2022-09-18T00:57:23.648Z,9.10
2022-09-18T00:59:51.959Z,9.20
2022-09-18T01:02:19.395Z,9.20
2022-09-18T01:04:47.226Z,9.40
2022-09-18T01:07:16.962Z,9.40
2022-09-18T01:09:55.117Z,9.50
2022-09-18T01:12:43.559Z,9.50
2022-09-18T01:15:37.515Z,9.50
2022-09-18T01:18:35.070Z,9.60
2022-09-18T01:21:15.588Z,9.60
2022-09-18T01:24:09.415Z,9.70
2022-09-18T01:26:36.128Z,9.70
2022-09-18T01:29:22.592Z,9.80
2022-09-18T01:31:54.925Z,9.80
2022-09-18T01:34:34.886Z,9.80
2022-09-18T01:37:21.123Z,9.80
2022-09-18T01:39:55.545Z,9.80
2022-09-18T01:42:25.305Z,9.80
2022-09-18T01:44:55.908Z,9.80
2022-09-18T01:47:28.903Z,9.80
2022-09-18T01:49:59.662Z,9.80
2022-09-18T01:52:33.508Z,9.80
2022-09-18T01:55:03.886Z,9.90
2022-09-18T01:57:59.094Z,10.00
2022-09-18T02:00:26.350Z,10.20
2022-09-18T02:03:06.098Z,10.40
2022-09-18T02:05:39.560Z,10.50
2022-09-18T02:08:15.330Z,10.50
2022-09-18T02:10:48.434Z,10.40
2022-09-18T02:13:19.899Z,10.30
2022-09-18T02:15:49.209Z,10.10
2022-09-18T02:18:22.169Z,10.00
2022-09-18T02:20:49.700Z,9.90
2022-09-18T02:23:17.068Z,9.90
2022-09-18T02:25:52.245Z,10.00
2022-09-18T02:28:21.840Z,9.90
2022-09-18T02:30:48.762Z,9.90
2022-09-18T02:33:25.974Z,9.90
2022-09-18T02:36:51.800Z,9.80
2022-09-18T02:39:46.863Z,9.80
2022-09-18T02:42:28.591Z,9.80
2022-09-18T02:45:11.381Z,9.80
2022-09-18T02:47:56.516Z,9.80
2022-09-18T02:50:26.199Z,9.90
2022-09-18T02:53:23.427Z,10.00
2022-09-18T02:56:02.940Z,10.00
2022-09-18T02:58:44.671Z,10.00
2022-09-18T03:01:13.215Z,10.10
2022-09-18T03:03:40.087Z,10.10
2022-09-18T03:06:08.167Z,10.10
2022-09-18T03:08:35.753Z,10.10
2022-09-18T03:11:02.587Z,10.10
2022-09-18T03:13:29.508Z,10.20
2022-09-18T03:15:57.021Z,10.20
2022-09-18T03:18:24.325Z,10.20
2022-09-18T03:20:51.123Z,10.30
2022-09-18T03:23:18.003Z,10.30
2022-09-18T03:25:44.871Z,10.30
2022-09-18T03:28:11.681Z,10.30
2022-09-18T03:30:38.584Z,10.30
2022-09-18T03:33:05.882Z,10.30
2022-09-18T03:35:32.676Z,10.30
2022-09-18T03:37:59.505Z,10.40
2022-09-18T03:40:26.367Z,10.40
2022-09-18T03:42:53.227Z,10.40
2022-09-18T03:45:20.078Z,10.40
2022-09-18T03:47:46.916Z,10.40
2022-09-18T03:50:15.151Z,10.30
2022-09-18T03:52:42.113Z,10.30
2022-09-18T03:55:09.694Z,10.30
2022-09-18T03:57:36.497Z,10.40
2022-09-18T04:00:04.996Z,10.40
2022-09-18T04:02:31.882Z,10.40
2022-09-18T04:04:58.952Z,10.40
2022-09-18T04:07:25.767Z,10.40
2022-09-18T04:09:52.611Z,10.40
2022-09-18T04:12:19.367Z,10.40
2022-09-18T04:14:46.202Z,10.40
2022-09-18T04:17:13.025Z,10.50
2022-09-18T04:19:39.875Z,10.50
2022-09-18T04:22:06.791Z,10.50
2022-09-18T04:24:35.382Z,10.50
2022-09-18T04:27:02.873Z,10.50
2022-09-18T04:29:29.804Z,10.40
2022-09-18T04:31:56.693Z,10.30
2022-09-18T04:34:23.524Z,10.40
2022-09-18T04:36:50.436Z,10.40
2022-09-18T04:39:17.384Z,10.40
2022-09-18T04:41:45.956Z,10.30
2022-09-18T04:44:12.755Z,10.30
2022-09-18T04:46:39.697Z,10.30
2022-09-18T04:49:06.583Z,10.30
2022-09-18T04:51:33.370Z,10.30
2022-09-18T04:54:00.505Z,10.30
2022-09-18T04:56:27.745Z,10.20
2022-09-18T04:58:54.671Z,10.20
2022-09-18T05:01:21.571Z,10.20
2022-09-18T05:03:48.894Z,10.20
2022-09-18T05:06:15.831Z,10.20
2022-09-18T05:08:42.639Z,10.30
2022-09-18T05:11:09.391Z,10.30
2022-09-18T05:13:36.210Z,10.30
2022-09-18T05:16:03.064Z,10.30
2022-09-18T05:18:29.934Z,10.30
2022-09-18T05:20:56.756Z,10.30
2022-09-18T05:23:23.620Z,10.20
2022-09-18T05:25:50.428Z,10.20
2022-09-18T05:28:19.256Z,10.20
2022-09-18T05:30:46.584Z,10.30
2022-09-18T05:33:13.530Z,10.20
2022-09-18T05:35:40.497Z,10.20
2022-09-18T05:38:07.378Z,10.20
2022-09-18T05:40:37.146Z,10.20
2022-09-18T05:43:05.765Z,10.20
2022-09-18T05:45:32.720Z,10.20
2022-09-18T05:48:01.919Z,10.20
2022-09-18T05:50:31.129Z,10.30
2022-09-18T05:53:05.339Z,10.20
2022-09-18T05:55:33.565Z,10.20
2022-09-18T05:58:02.305Z,10.20
2022-09-18T06:00:31.472Z,10.20
2022-09-18T06:03:00.710Z,10.20
2022-09-18T06:05:29.603Z,10.20
2022-09-18T06:07:59.971Z,10.10
2022-09-18T06:10:27.601Z,10.10
2022-09-18T06:13:02.707Z,10.10
2022-09-18T06:15:29.775Z,10.10
2022-09-18T06:17:56.596Z,10.10
2022-09-18T06:20:23.875Z,10.10
2022-09-18T06:22:50.708Z,10.10
2022-09-18T06:25:21.540Z,10.10
2022-09-18T06:27:53.456Z,10.10
2022-09-18T06:30:20.595Z,10.20
2022-09-18T06:32:47.434Z,10.10
2022-09-18T06:35:14.266Z,10.10
2022-09-18T06:37:41.061Z,10.10
2022-09-18T06:40:08.243Z,10.10
2022-09-18T06:42:35.218Z,10.10
2022-09-18T06:45:02.057Z,10.10
2022-09-18T06:47:28.997Z,10.10
2022-09-18T06:49:55.806Z,10.10
2022-09-18T06:52:22.651Z,10.10
2022-09-18T06:54:49.465Z,10.10
2022-09-18T06:57:16.459Z,10.10
2022-09-18T06:59:43.303Z,10.10
2022-09-18T07:02:18.676Z,10.10
2022-09-18T07:04:46.916Z,10.10
2022-09-18T07:07:13.803Z,10.10
2022-09-18T07:09:40.621Z,10.10
2022-09-18T07:12:07.762Z,10.10
2022-09-18T07:14:34.801Z,10.10
2022-09-18T07:17:01.621Z,10.10
2022-09-18T07:19:28.609Z,10.10
2022-09-18T07:21:55.464Z,10.00
2022-09-18T07:24:22.326Z,10.00
2022-09-18T07:26:49.135Z,10.00
2022-09-18T07:29:15.986Z,10.00
2022-09-18T07:31:42.951Z,10.00
2022-09-18T07:34:11.870Z,10.00
2022-09-18T07:36:38.790Z,10.00
2022-09-18T07:39:05.891Z,10.10
2022-09-18T07:41:32.783Z,10.10
2022-09-18T07:43:59.632Z,10.20
2022-09-18T07:46:26.512Z,10.20
2022-09-18T07:48:53.402Z,10.30
2022-09-18T07:51:25.466Z,10.30
2022-09-18T07:53:53.313Z,10.40
2022-09-18T07:56:20.188Z,10.30
2022-09-18T07:58:47.206Z,10.30
2022-09-18T08:01:14.033Z,10.30
2022-09-18T08:03:41.725Z,10.30
2022-09-18T08:06:08.730Z,10.30
2022-09-18T08:08:36.357Z,10.30
2022-09-18T08:11:03.374Z,10.30
2022-09-18T08:13:30.294Z,10.40
2022-09-18T08:15:57.965Z,10.30
2022-09-18T08:18:25.114Z,10.30
2022-09-18T08:20:51.965Z,10.30
2022-09-18T08:23:18.959Z,10.30
2022-09-18T08:25:47.515Z,10.20
2022-09-18T08:28:14.395Z,10.20
2022-09-18T08:30:41.205Z,10.20
2022-09-18T08:33:09.121Z,10.30
2022-09-18T08:35:36.258Z,10.30
2022-09-18T08:38:03.446Z,10.30
2022-09-18T08:40:36.528Z,10.20
2022-09-18T08:43:40.101Z,10.10
2022-09-18T08:46:20.291Z,10.20
2022-09-18T08:49:14.652Z,10.20
2022-09-18T08:51:52.172Z,10.30
2022-09-18T08:54:37.508Z,10.20
2022-09-18T08:57:15.487Z,10.10
2022-09-18T08:59:51.169Z,10.10
2022-09-18T09:02:37.419Z,10.10
2022-09-18T09:05:13.885Z,10.10
2022-09-18T09:07:50.182Z,10.10
2022-09-18T09:10:20.023Z,10.10
2022-09-18T09:13:23.240Z,10.20
2022-09-18T09:15:53.282Z,10.20
2022-09-18T09:18:38.119Z,10.20
2022-09-18T09:21:23.352Z,10.20
2022-09-18T09:23:57.267Z,10.30
2022-09-18T09:26:25.939Z,10.40
2022-09-18T09:28:55.493Z,10.50
2022-09-18T09:31:35.716Z,10.40
2022-09-18T09:34:26.522Z,10.40
2022-09-18T09:36:57.438Z,10.40
2022-09-18T09:39:39.658Z,10.30
2022-09-18T09:42:13.527Z,10.40
2022-09-18T09:44:49.811Z,10.40
2022-09-18T09:47:32.074Z,10.40
2022-09-18T09:50:33.253Z,10.40
2022-09-18T09:53:04.211Z,10.40
2022-09-18T09:55:37.263Z,10.50
2022-09-18T09:58:09.858Z,10.50
2022-09-18T10:00:54.369Z,10.50
2022-09-18T10:03:58.953Z,10.40
2022-09-18T10:06:48.996Z,10.40
2022-09-18T10:09:30.234Z,10.40
2022-09-18T10:12:16.336Z,10.40
2022-09-18T10:14:46.328Z,10.40
2022-09-18T10:17:15.878Z,10.40
2022-09-18T10:19:43.918Z,10.40
2022-09-18T10:22:15.777Z,10.50
2022-09-18T10:24:52.755Z,10.50
2022-09-18T10:27:20.084Z,10.50
2022-09-18T10:29:46.973Z,10.40
2022-09-18T10:32:32.743Z,10.40
2022-09-18T10:34:59.613Z,10.40
2022-09-18T10:37:29.435Z,10.40
2022-09-18T10:39:59.967Z,10.50
2022-09-18T10:42:34.565Z,10.40
2022-09-18T10:45:22.474Z,10.50
2022-09-18T10:47:49.917Z,10.50
2022-09-18T10:50:20.101Z,10.50
2022-09-18T10:52:48.768Z,10.50
2022-09-18T10:55:28.736Z,10.50
2022-09-18T10:57:58.576Z,10.60
2022-09-18T11:00:29.811Z,10.50
2022-09-18T11:02:56.671Z,10.50
2022-09-18T11:05:27.728Z,10.60
2022-09-18T11:07:57.469Z,10.60
2022-09-18T11:10:26.921Z,10.60
2022-09-18T11:13:03.938Z,10.70
2022-09-18T11:15:33.097Z,10.60
2022-09-18T11:18:05.922Z,10.60
2022-09-18T11:20:41.975Z,10.70
2022-09-18T11:23:37.384Z,10.80
2022-09-18T11:26:16.057Z,10.80
2022-09-18T11:28:43.222Z,10.80
2022-09-18T11:31:15.376Z,10.90
2022-09-18T11:33:47.892Z,10.90
2022-09-18T11:36:23.168Z,11.00
2022-09-18T11:38:50.218Z,11.00
2022-09-18T11:41:26.893Z,11.00
2022-09-18T11:44:11.103Z,11.10
2022-09-18T11:46:54.655Z,11.10
2022-09-18T11:49:30.198Z,11.10
2022-09-18T11:52:01.430Z,11.10
2022-09-18T11:54:36.923Z,11.30
2022-09-18T11:57:12.183Z,11.40
2022-09-18T11:59:46.752Z,11.40
2022-09-18T12:02:30.980Z,11.40
2022-09-18T12:05:19.094Z,11.50
2022-09-18T12:08:05.191Z,11.60
2022-09-18T12:10:38.091Z,11.80
2022-09-18T12:13:25.261Z,12.00
2022-09-18T12:16:14.640Z,12.10
2022-09-18T12:19:18.664Z,12.00
2022-09-18T12:22:16.993Z,12.10
2022-09-18T12:24:43.837Z,12.30
2022-09-18T12:27:15.233Z,12.20
2022-09-18T12:30:03.600Z,12.20
2022-09-18T12:32:46.676Z,12.20
2022-09-18T12:35:22.769Z,12.10
2022-09-18T12:37:58.486Z,12.10
2022-09-18T12:40:55.734Z,12.10
2022-09-18T12:43:32.985Z,12.10
2022-09-18T12:46:05.772Z,12.10
2022-09-18T12:48:52.649Z,12.20
2022-09-18T12:51:35.442Z,12.20
2022-09-18T12:54:39.351Z,12.30
2022-09-18T12:57:30.733Z,12.40
2022-09-18T13:00:05.355Z,12.40
2022-09-18T13:02:35.252Z,12.40
2022-09-18T13:05:11.381Z,12.40
2022-09-18T13:07:48.738Z,12.40
2022-09-18T13:10:26.772Z,12.50
2022-09-18T13:13:14.752Z,12.40
2022-09-18T13:15:55.476Z,12.40
2022-09-18T13:18:39.152Z,12.40
2022-09-18T13:21:10.647Z,12.30
2022-09-18T13:23:40.586Z,12.40
2022-09-18T13:26:11.478Z,12.40
2022-09-18T13:28:41.784Z,12.30
2022-09-18T13:31:14.972Z,12.30
2022-09-18T13:34:06.459Z,12.40
2022-09-18T13:36:43.595Z,12.40
2022-09-18T13:39:28.809Z,12.40
2022-09-18T13:41:58.406Z,12.50
2022-09-18T13:44:35.701Z,12.60
2022-09-18T13:47:10.515Z,12.60
2022-09-18T13:49:52.069Z,12.70
2022-09-18T13:52:34.348Z,12.70
2022-09-18T13:55:02.100Z,12.70
2022-09-18T13:57:32.682Z,12.70
2022-09-18T14:00:02.615Z,12.70
2022-09-18T14:02:37.421Z,12.80
2022-09-18T14:14:11.919Z,12.80
2022-09-18T14:16:43.525Z,12.80
2022-09-18T14:19:36.162Z,12.80
2022-09-18T14:22:03.576Z,12.70
2022-09-18T14:24:55.821Z,12.60
2022-09-18T14:27:29.890Z,12.60
2022-09-18T14:30:10.964Z,12.60
2022-09-18T14:32:38.828Z,12.60
2022-09-18T14:35:23.520Z,12.60
2022-09-18T14:37:50.811Z,12.70
2022-09-18T14:40:24.031Z,12.80
2022-09-18T14:42:51.523Z,12.90
2022-09-18T14:45:31.827Z,12.80
2022-09-18T14:47:59.202Z,12.80
2022-09-18T14:50:37.368Z,12.80
2022-09-18T14:53:21.660Z,12.70
2022-09-18T14:56:09.419Z,12.70
2022-09-18T14:58:40.659Z,12.70
2022-09-18T15:01:14.024Z,12.50
2022-09-18T15:03:45.687Z,12.50
2022-09-18T15:06:37.353Z,12.40
2022-09-18T15:09:07.448Z,12.50
2022-09-18T15:11:52.289Z,12.60
2022-09-18T15:14:28.984Z,12.40
2022-09-18T15:16:58.263Z,12.20
2022-09-18T15:19:25.756Z,12.10
2022-09-18T15:21:53.752Z,12.00
2022-09-18T15:24:21.297Z,11.90
2022-09-18T15:26:56.015Z,11.90
2022-09-18T15:29:29.407Z,11.90
2022-09-18T15:31:57.286Z,11.70
2022-09-18T15:34:28.011Z,11.60
2022-09-18T15:37:02.646Z,11.60
2022-09-18T15:39:39.815Z,11.50
2022-09-18T15:42:32.999Z,11.40
2022-09-18T15:44:59.731Z,11.40
2022-09-18T15:47:30.941Z,11.50
2022-09-18T15:49:59.753Z,12.40
2022-09-18T15:52:49.496Z,13.30
2022-09-18T15:55:31.885Z,14.40
2022-09-18T15:58:03.953Z,15.10
2022-09-18T16:00:36.933Z,16.30
2022-09-18T16:03:17.212Z,16.90
2022-09-18T16:05:54.370Z,16.40
2022-09-18T16:08:25.250Z,15.40
2022-09-18T16:10:53.791Z,14.60
2022-09-18T16:13:20.847Z,13.70
2022-09-18T16:16:08.385Z,13.20
2022-09-18T16:18:56.315Z,12.80
2022-09-18T16:21:26.014Z,13.00
2022-09-18T16:24:02.959Z,13.50
2022-09-18T16:26:35.367Z,13.10
2022-09-18T16:29:17.456Z,13.00
2022-09-18T16:31:45.665Z,12.80
2022-09-18T16:34:21.628Z,12.60
2022-09-18T16:36:49.834Z,12.50
2022-09-18T16:39:22.366Z,12.40
2022-09-18T16:41:49.650Z,12.30
2022-09-18T16:44:18.258Z,12.30
2022-09-18T16:46:56.117Z,12.20
2022-09-18T16:49:27.463Z,11.90
2022-09-18T16:51:58.140Z,11.80
2022-09-18T16:54:25.762Z,11.50
2022-09-18T16:57:02.939Z,11.60
2022-09-18T16:59:32.890Z,11.70
2022-09-18T17:02:04.584Z,11.70
2022-09-18T17:04:33.024Z,11.80
2022-09-18T17:07:00.675Z,11.80
2022-09-18T17:09:27.822Z,11.70
2022-09-18T17:11:55.023Z,11.60
2022-09-18T17:14:22.879Z,11.50
2022-09-18T17:16:49.764Z,11.40
2022-09-18T17:19:16.685Z,11.30
2022-09-18T17:21:43.702Z,11.40
2022-09-18T17:24:11.472Z,11.40
2022-09-18T17:26:40.387Z,11.50
2022-09-18T17:29:09.136Z,12.10
2022-09-18T17:31:36.137Z,12.50
2022-09-18T17:34:03.099Z,12.60
2022-09-18T17:36:29.974Z,12.70
2022-09-18T17:39:00.561Z,12.70
2022-09-18T17:41:29.143Z,12.70
2022-09-18T17:43:55.902Z,12.90
2022-09-18T17:46:22.749Z,13.10
2022-09-18T17:48:54.222Z,13.00
2022-09-18T17:51:21.859Z,13.00
2022-09-18T17:53:50.185Z,13.00
2022-09-18T17:56:19.026Z,12.90
2022-09-18T17:58:46.800Z,12.80
2022-09-18T18:01:16.624Z,12.90
2022-09-18T18:03:43.971Z,12.50
2022-09-18T18:06:13.690Z,12.40
2022-09-18T18:08:41.128Z,12.40
2022-09-18T18:11:18.072Z,12.40
2022-09-18T18:13:46.913Z,12.50
2022-09-18T18:16:23.347Z,12.50
2022-09-18T18:18:51.656Z,12.40
2022-09-18T18:21:19.096Z,12.10
2022-09-18T18:23:46.590Z,11.80
2022-09-18T18:26:13.978Z,11.80
2022-09-18T18:28:42.021Z,11.80
2022-09-18T18:31:12.295Z,11.60
2022-09-18T18:33:42.622Z,11.70
2022-09-18T18:36:23.210Z,11.70
2022-09-18T18:38:52.288Z,11.70
2022-09-18T18:41:21.594Z,11.60
2022-09-18T18:43:55.759Z,11.60
2022-09-18T18:46:25.613Z,11.60
2022-09-18T18:49:02.829Z,11.40
2022-09-18T18:51:38.957Z,11.20
2022-09-18T18:54:06.509Z,11.40
2022-09-18T18:56:37.533Z,11.30
2022-09-18T18:59:06.491Z,11.30
2022-09-18T19:01:33.711Z,11.20
2022-09-18T19:04:07.133Z,11.10
2022-09-18T19:06:40.226Z,11.00
2022-09-18T19:09:14.280Z,11.00
2022-09-18T19:11:46.830Z,10.90
2022-09-18T19:14:16.963Z,10.80
2022-09-18T19:16:45.465Z,10.70
2022-09-18T19:19:14.785Z,10.90
2022-09-18T19:21:42.067Z,11.10
2022-09-18T19:24:10.758Z,11.20
2022-09-18T19:26:39.299Z,11.20
2022-09-18T19:29:10.214Z,11.10
2022-09-18T19:31:38.781Z,11.10
2022-09-18T19:34:06.514Z,11.00
2022-09-18T19:36:34.198Z,11.10
2022-09-18T19:39:04.058Z,11.30
2022-09-18T19:41:42.344Z,11.40
2022-09-18T19:44:31.928Z,11.60
2022-09-18T19:47:02.381Z,11.80
2022-09-18T19:49:40.778Z,11.90
2022-09-18T19:52:20.199Z,11.70
2022-09-18T19:54:48.156Z,11.60
2022-09-18T19:57:15.867Z,11.40
2022-09-18T19:59:43.143Z,11.40
2022-09-18T20:02:15.739Z,11.20
2022-09-18T20:04:42.750Z,11.20
2022-09-18T20:07:10.313Z,11.10
2022-09-18T20:09:37.631Z,10.90
2022-09-18T20:12:04.609Z,10.70
2022-09-18T20:14:31.445Z,10.60
2022-09-18T20:16:58.615Z,10.60
2022-09-18T20:19:26.057Z,10.80
2022-09-18T20:21:53.640Z,10.80
2022-09-18T20:24:20.676Z,11.00
2022-09-18T20:26:51.383Z,11.00
2022-09-18T20:29:18.295Z,10.80
2022-09-18T20:31:45.975Z,10.60
2022-09-18T20:34:13.058Z,10.50
2022-09-18T20:36:39.861Z,10.50
2022-09-18T20:39:06.873Z,10.40
2022-09-18T20:41:33.878Z,10.30
2022-09-18T20:44:03.225Z,10.20
2022-09-18T20:46:34.041Z,10.10
2022-09-18T20:49:03.357Z,10.00
2022-09-18T20:51:35.839Z,10.00
2022-09-18T20:54:08.322Z,10.00
2022-09-18T20:56:41.267Z,10.00
2022-09-18T20:59:10.432Z,10.00
2022-09-18T21:01:38.198Z,10.00
2022-09-18T21:04:05.188Z,10.00
2022-09-18T21:06:33.608Z,10.00
2022-09-18T21:09:05.926Z,10.10
2022-09-18T21:11:36.242Z,10.00
2022-09-18T21:14:05.154Z,9.90
2022-09-18T21:16:35.219Z,10.00
2022-09-18T21:19:04.915Z,10.10
2022-09-18T21:21:34.007Z,10.20
2022-09-18T21:24:04.206Z,10.30
2022-09-18T21:26:34.151Z,10.40
2022-09-18T21:29:11.503Z,10.30
2022-09-18T21:31:42.383Z,10.50
2022-09-18T21:34:12.544Z,10.50
2022-09-18T21:36:43.331Z,10.40
2022-09-18T21:39:12.407Z,10.40
2022-09-18T21:41:40.093Z,10.50
2022-09-18T21:44:11.876Z,10.50
2022-09-18T21:46:39.633Z,10.50
2022-09-18T21:49:08.777Z,10.50
2022-09-18T21:51:37.054Z,10.60
2022-09-18T21:54:05.646Z,10.70
2022-09-18T21:56:33.643Z,10.90
2022-09-18T21:59:00.560Z,11.10
2022-09-18T22:01:31.560Z,11.20
2022-09-18T22:04:00.928Z,11.20
2022-09-18T22:06:36.262Z,11.20
2022-09-18T22:09:08.425Z,11.20
2022-09-18T22:11:38.783Z,11.30
2022-09-18T22:14:10.818Z,11.20
2022-09-18T22:16:38.407Z,11.20
2022-09-18T22:19:08.297Z,11.20
2022-09-18T22:21:37.804Z,11.10
2022-09-18T22:24:08.964Z,11.00
2022-09-18T22:26:48.029Z,10.90
2022-09-18T22:29:18.690Z,10.90
2022-09-18T22:31:46.739Z,10.90
2022-09-18T22:34:19.474Z,10.90
2022-09-18T22:36:47.545Z,10.80
2022-09-18T22:39:16.019Z,10.80
2022-09-18T22:41:43.511Z,10.70
2022-09-18T22:44:11.154Z,10.70
2022-09-18T22:46:40.174Z,10.60
2022-09-18T22:49:08.835Z,10.80
2022-09-18T22:51:35.982Z,10.80
2022-09-18T22:54:07.647Z,10.80
2022-09-18T22:56:41.144Z,10.70
2022-09-18T22:59:08.107Z,10.70
2022-09-18T23:01:41.230Z,10.60
2022-09-18T23:04:08.623Z,10.50
2022-09-18T23:06:35.575Z,10.50
2022-09-18T23:09:03.565Z,10.50
2022-09-18T23:11:32.206Z,10.40
2022-09-18T23:14:02.007Z,10.40
2022-09-18T23:16:30.258Z,10.50
2022-09-18T23:19:00.343Z,10.50
2022-09-18T23:21:28.855Z,10.60
2022-09-18T23:23:56.139Z,10.60
2022-09-18T23:26:29.357Z,10.60
2022-09-18T23:28:58.911Z,10.60
2022-09-18T23:31:31.219Z,10.60
2022-09-18T23:34:00.291Z,10.80
2022-09-18T23:36:33.319Z,10.90
2022-09-18T23:39:02.478Z,11.00
2022-09-18T23:41:30.144Z,11.10
2022-09-18T23:43:57.195Z,11.20
2022-09-18T23:46:24.268Z,11.20
2022-09-18T23:48:55.088Z,11.30
2022-09-18T23:51:34.383Z,11.30
2022-09-18T23:54:03.233Z,11.40
2022-09-18T23:56:32.137Z,11.40
2022-09-18T23:59:02.071Z,11.40
